Home > Products > Valid Products > TAF

000
FTUS44 KLIX 222300
TAFMSY
TAF
KMSY 222331Z 2300/2324 04006KT P6SM SKC=



000
FTUS44 KLIX 222300
TAFGPT
TAF
KGPT 222331Z 2300/2324 04008KT P6SM SKC=



000
FTUS44 KLIX 222300
TAFNEW
TAF
KNEW 222331Z 2300/2324 03009KT P6SM SKC
     FM230600 05012KT P6SM SKC
     FM231800 05007KT P6SM SCT200=



000
FTUS44 KLIX 222300
TAFMCB
TAF
KMCB 222331Z 2300/2324 02004KT P6SM SKC=



000
FTUS44 KLIX 222300
TAFBTR
TAF
KBTR 222331Z 2300/2324 04004KT P6SM SKC=



000
FTUS44 KLIX 221700
TAFBTR
TAF
KBTR 221721Z 2218/2318 05006KT P6SM FEW250
     FM230300 00000KT P6SM SKC=



000
FTUS44 KLIX 221700
TAFMCB
TAF
KMCB 221721Z 2218/2318 03006KT P6SM SKC=



000
FTUS44 KLIX 221700
TAFMSY
TAF
KMSY 221721Z 2218/2318 05009KT P6SM FEW250=



000
FTUS44 KLIX 221700
TAFGPT
TAF
KGPT 221721Z 2218/2318 04010KT P6SM FEW250
     FM230000 02005KT P6SM FEW250=



000
FTUS44 KLIX 221700
TAFNEW
TAF
KNEW 221721Z 2218/2318 05010KT P6SM FEW250=



000
FTUS44 KLIX 221700
TAFGPT
TAF
KGPT 221721Z 2218/2318 04010KT P6SM FEW250
     FM230000 02005KT P6SM FEW250=



000
FTUS44 KLIX 221700
TAFMSY
TAF
KMSY 221721Z 2218/2318 05009KT P6SM FEW250=



000
FTUS44 KLIX 221700
TAFMCB
TAF
KMCB 221721Z 2218/2318 03006KT P6SM SKC=



000
FTUS44 KLIX 221700
TAFBTR
TAF
KBTR 221721Z 2218/2318 05006KT P6SM FEW250
     FM230300 00000KT P6SM SKC=



000
FTUS44 KLIX 221700
TAFNEW
TAF
KNEW 221721Z 2218/2318 05010KT P6SM FEW250=



000
FTUS44 KLIX 221600 AAA
TAFMSY
TAF AMD
KMSY 221609Z 2216/2312 05010KT P6SM SKC=



000
FTUS44 KLIX 221600 AAA
TAFMSY
TAF AMD
KMSY 221609Z 2216/2312 05010KT P6SM SKC=



000
FTUS44 KLIX 221100
TAFNEW
TAF
KNEW 221120Z 2212/2312 04011KT P6SM SKC
     FM222100 04007KT P6SM SKC
     FM230300 05011KT P6SM SKC=



000
FTUS44 KLIX 221100
TAFMCB
TAF
KMCB 221120Z 2212/2312 VRB03KT P6SM SKC
     FM221900 03007KT P6SM SKC
     FM230100 VRB03KT P6SM SKC=



000
FTUS44 KLIX 221100
TAFBTR
TAF
KBTR 221120Z 2212/2312 04004KT P6SM SKC=



000
FTUS44 KLIX 221100
TAFGPT
TAF
KGPT 221120Z 2212/2312 03008KT P6SM SKC=



000
FTUS44 KLIX 221100
TAFMSY
TAF
KMSY 221120Z 2212/2312 04008KT P6SM SKC=



000
FTUS44 KLIX 220500
TAFGPT
TAF
KGPT 220520Z 2206/2306 02008KT P6SM SKC=



000
FTUS44 KLIX 220500
TAFMCB
TAF
KMCB 220520Z 2206/2306 03006KT P6SM SKC=



000
FTUS44 KLIX 220500
TAFNEW
TAF
KNEW 220520Z 2206/2306 04008KT P6SM SKC
     FM221200 05011KT P6SM SKC=



000
FTUS44 KLIX 220500
TAFBTR
TAF
KBTR 220520Z 2206/2306 05006KT P6SM SKC=



000
FTUS44 KLIX 220500
TAFMSY
TAF
KMSY 220520Z 2206/2306 04009KT P6SM SKC=



000
FTUS44 KLIX 220500
TAFMSY
TAF
KMSY 220520Z 2206/2306 04009KT P6SM SKC=



000
FTUS44 KLIX 220500
TAFNEW
TAF
KNEW 220520Z 2206/2306 04008KT P6SM SKC
     FM221200 05011KT P6SM SKC=



000
FTUS44 KLIX 220500
TAFMCB
TAF
KMCB 220520Z 2206/2306 03006KT P6SM SKC=



000
FTUS44 KLIX 220500
TAFGPT
TAF
KGPT 220520Z 2206/2306 02008KT P6SM SKC=



000
FTUS44 KLIX 220500
TAFBTR
TAF
KBTR 220520Z 2206/2306 05006KT P6SM SKC=



000
FTUS44 KLIX 212300
TAFNEW
TAF
KNEW 212322Z 2200/2224 06005KT P6SM SKC
     FM220800 04010KT P6SM SKC=



000
FTUS44 KLIX 212300
TAFMSY
TAF
KMSY 212322Z 2200/2224 06004KT P6SM SKC
     FM221500 04010KT P6SM SKC=



000
FTUS44 KLIX 212300
TAFMCB
TAF
KMCB 212322Z 2200/2224 VRB03KT P6SM SKC
     FM221500 03008KT P6SM SKC=



000
FTUS44 KLIX 212300
TAFBTR
TAF
KBTR 212322Z 2200/2224 00000KT P6SM SKC
     FM221500 05006KT P6SM FEW250=



000
FTUS44 KLIX 212300
TAFGPT
TAF
KGPT 212322Z 2200/2224 VRB04KT P6SM SKC
     FM221500 03010KT P6SM SKC=



000
FTUS44 KLIX 212300
TAFMSY
TAF
KMSY 212322Z 2200/2224 06004KT P6SM SKC
     FM221500 04010KT P6SM SKC=



000
FTUS44 KLIX 212300
TAFBTR
TAF
KBTR 212322Z 2200/2224 00000KT P6SM SKC
     FM221500 05006KT P6SM FEW250=



000
FTUS44 KLIX 212300
TAFGPT
TAF
KGPT 212322Z 2200/2224 VRB04KT P6SM SKC
     FM221500 03010KT P6SM SKC=



000
FTUS44 KLIX 212300
TAFMCB
TAF
KMCB 212322Z 2200/2224 VRB03KT P6SM SKC
     FM221500 03008KT P6SM SKC=



000
FTUS44 KLIX 211700
TAFGPT
TAF
KGPT 211723Z 2118/2218 04008KT P6SM FEW250
     FM212300 04004KT P6SM SKC
     FM221100 03008KT P6SM SKC=



000
FTUS44 KLIX 211700
TAFMSY
TAF
KMSY 211723Z 2118/2218 05007KT P6SM FEW250=



000
FTUS44 KLIX 211700
TAFMCB
TAF
KMCB 211723Z 2118/2218 03005KT P6SM SKC=



000
FTUS44 KLIX 211700
TAFNEW
TAF
KNEW 211723Z 2118/2218 05008KT P6SM FEW250=



000
FTUS44 KLIX 211700
TAFBTR
TAF
KBTR 211723Z 2118/2218 05005KT P6SM FEW250=



000
FTUS44 KLIX 211100
TAFNEW
TAF
KNEW 211120Z 2112/2212 04008KT P6SM FEW250=



000
FTUS44 KLIX 211100
TAFGPT
TAF
KGPT 211120Z 2112/2212 02006KT P6SM FEW250=



000
FTUS44 KLIX 211100
TAFMCB
TAF
KMCB 211120Z 2112/2212 03005KT P6SM FEW250=



000
FTUS44 KLIX 211100
TAFNEW
TAF
KNEW 211120Z 2112/2212 04008KT P6SM FEW250=



000
FTUS44 KLIX 211100
TAFNEW
TAF
KNEW 211120Z 2112/2212 04008KT P6SM FEW250=



000
FTUS44 KLIX 211100
TAFBTR
TAF
KBTR 211120Z 2112/2212 05005KT P6SM FEW250=



000
FTUS44 KLIX 211100
TAFMCB
TAF
KMCB 211120Z 2112/2212 03005KT P6SM FEW250=



000
FTUS44 KLIX 211100
TAFGPT
TAF
KGPT 211120Z 2112/2212 02006KT P6SM FEW250=



000
FTUS44 KLIX 211100
TAFMSY
TAF
KMSY 211120Z 2112/2212 04006KT P6SM FEW250=



000
FTUS44 KLIX 211100
TAFMSY
TAF
KMSY 211120Z 2112/2212 04006KT P6SM FEW250=



000
FTUS44 KLIX 211100
TAFBTR
TAF
KBTR 211120Z 2112/2212 05005KT P6SM FEW250=



000
FTUS44 KLIX 210500
TAFNEW
TAF
KNEW 210520Z 2106/2206 04004KT P6SM FEW250
     FM211300 03008KT P6SM FEW250=



000
FTUS44 KLIX 210500
TAFGPT
TAF
KGPT 210520Z 2106/2206 00000KT P6SM FEW250
     FM211400 03006KT P6SM FEW250=



000
FTUS44 KLIX 210500
TAFNEW
TAF
KNEW 210520Z 2106/2206 04004KT P6SM FEW250
     FM211300 03008KT P6SM FEW250=



000
FTUS44 KLIX 210500
TAFMCB
TAF
KMCB 210520Z 2106/2206 00000KT P6SM FEW250
     FM211700 02006KT P6SM FEW250
     FM220000 00000KT P6SM FEW250=



000
FTUS44 KLIX 210500
TAFMSY
TAF
KMSY 210520Z 2106/2206 VRB03KT P6SM FEW250
     FM211600 04007KT P6SM FEW250=



000
FTUS44 KLIX 210500
TAFBTR
TAF
KBTR 210520Z 2106/2206 00000KT P6SM FEW250
     FM211700 04006KT P6SM FEW250
     FM220000 00000KT P6SM FEW250=



000
FTUS44 KLIX 202300
TAFNEW
TAF
KNEW 202331Z 2100/2124 35006KT P6SM SKC
     FM211100 03007KT P6SM FEW250=



000
FTUS44 KLIX 202300
TAFNEW
TAF
KNEW 202331Z 2100/2124 35006KT P6SM SKC
     FM211100 03007KT P6SM FEW250=



000
FTUS44 KLIX 202300
TAFMCB
TAF
KMCB 202331Z 2100/2124 00000KT P6SM SKC
     FM211700 02006KT P6SM FEW250=



000
FTUS44 KLIX 202300
TAFGPT
TAF
KGPT 202331Z 2100/2124 21003KT P6SM SKC
     FM211400 03006KT P6SM FEW250=



000
FTUS44 KLIX 202300
TAFBTR
TAF
KBTR 202331Z 2100/2124 00000KT P6SM SKC
     FM211700 04006KT P6SM FEW250=



000
FTUS44 KLIX 202300
TAFMSY
TAF
KMSY 202331Z 2100/2124 01007KT P6SM FEW150 SCT250
     FM211300 03006KT P6SM FEW250=



000
FTUS44 KLIX 201700
TAFNEW
TAF
KNEW 201722Z 2018/2118 05005KT P6SM SCT250=



000
FTUS44 KLIX 201700
TAFNEW
TAF
KNEW 201722Z 2018/2118 05005KT P6SM SCT250=



000
FTUS44 KLIX 201700
TAFMCB
TAF
KMCB 201722Z 2018/2118 VRB03KT P6SM FEW250=



000
FTUS44 KLIX 201700
TAFGPT
TAF
KGPT 201722Z 2018/2118 09005KT P6SM FEW250
     FM202200 00000KT P6SM FEW250
     FM211400 03006KT P6SM FEW250=



000
FTUS44 KLIX 201700
TAFBTR
TAF
KBTR 201722Z 2018/2118 VRB03KT P6SM FEW250=



000
FTUS44 KLIX 201700
TAFMSY
TAF
KMSY 201722Z 2018/2118 04005KT P6SM SCT250=



000
FTUS44 KLIX 201100
TAFMSY
TAF
KMSY 201120Z 2012/2112 03005KT P6SM FEW250=



000
FTUS44 KLIX 201100
TAFNEW
TAF
KNEW 201120Z 2012/2112 05006KT P6SM FEW250=



000
FTUS44 KLIX 201100
TAFBTR
TAF
KBTR 201120Z 2012/2112 03004KT P6SM FEW250=



000
FTUS44 KLIX 201100
TAFGPT
TAF
KGPT 201120Z 2012/2112 04004KT P6SM FEW250
     FM201900 15005KT P6SM FEW250
     FM210000 00000KT P6SM FEW250=



000
FTUS44 KLIX 201100
TAFNEW
TAF
KNEW 201120Z 2012/2112 05006KT P6SM FEW250=



000
FTUS44 KLIX 201100
TAFMCB
TAF
KMCB 201120Z 2012/2112 02004KT P6SM FEW250=



000
FTUS44 KLIX 200500
TAFMSY
TAF
KMSY 200520Z 2006/2106 VRB04KT P6SM SKC=



000
FTUS44 KLIX 200500
TAFMCB
TAF
KMCB 200520Z 2006/2106 VRB03KT P6SM SKC=



000
FTUS44 KLIX 200500
TAFBTR
TAF
KBTR 200520Z 2006/2106 VRB03KT P6SM SKC=



000
FTUS44 KLIX 200500
TAFGPT
TAF
KGPT 200520Z 2006/2106 VRB03KT P6SM SKC=



000
FTUS44 KLIX 200500
TAFNEW
TAF
KNEW 200520Z 2006/2106 10009KT P6SM FEW250
     FM200900 05005KT P6SM SKC=



000
FTUS44 KLIX 200500
TAFNEW
TAF
KNEW 200520Z 2006/2106 10009KT P6SM FEW250
     FM200900 05005KT P6SM SKC=



    US Dept of Commerce
    National Oceanic and Atmospheric Administration
    National Weather Service
    1325 East West Highway
    Silver Spring, MD 20910
    Page Author: NWS Internet Services Team
Disclaimer
Information Quality
Credits
Glossary
Privacy Policy
Freedom of Information Act (FOIA)
About Us
Career Opportunities